createdAt,value
2018-12-06T00:01:31.359Z,5.60
2018-12-06T00:04:01.972Z,5.60
2018-12-06T00:06:36.068Z,5.60
2018-12-06T00:09:09.543Z,5.60
2018-12-06T00:11:42.706Z,5.60
2018-12-06T00:14:21.038Z,5.60
2018-12-06T00:16:54.736Z,5.60
2018-12-06T00:19:28.067Z,5.70
2018-12-06T00:22:01.620Z,5.70
2018-12-06T00:24:32.187Z,5.80
2018-12-06T00:27:08.197Z,5.80
2018-12-06T00:29:46.423Z,5.90
2018-12-06T00:32:24.194Z,5.90
2018-12-06T00:34:54.960Z,6.00
2018-12-06T00:40:28.168Z,6.00
2018-12-06T00:43:02.197Z,6.00
2018-12-06T00:45:31.426Z,5.90
2018-12-06T00:48:07.412Z,5.90
2018-12-06T00:50:45.074Z,5.90
2018-12-06T00:53:18.820Z,5.90
2018-12-06T00:55:49.572Z,6.00
2018-12-06T00:58:23.075Z,6.00
2018-12-06T01:00:53.809Z,6.10
2018-12-06T01:03:24.305Z,6.10
2018-12-06T01:05:57.696Z,6.10
2018-12-06T01:08:31.048Z,6.10
2018-12-06T01:11:20.205Z,6.10
2018-12-06T01:13:49.348Z,6.10
2018-12-06T01:16:22.602Z,6.10
2018-12-06T01:18:51.176Z,6.10
2018-12-06T01:21:25.539Z,6.10
2018-12-06T01:23:59.080Z,6.10
2018-12-06T01:26:36.675Z,6.20
2018-12-06T01:29:05.571Z,6.20
2018-12-06T01:31:38.932Z,6.20
2018-12-06T01:34:09.679Z,6.20
2018-12-06T01:36:44.895Z,6.30
2018-12-06T01:39:18.674Z,6.30
2018-12-06T01:41:52.023Z,6.30
2018-12-06T01:44:21.014Z,6.40
2018-12-06T01:49:53.739Z,6.30
2018-12-06T01:52:27.060Z,6.30
2018-12-06T01:54:55.824Z,6.30
2018-12-06T01:57:30.143Z,6.30
2018-12-06T02:00:10.384Z,6.30
2018-12-06T02:02:41.415Z,6.30
2018-12-06T02:05:15.892Z,6.30
2018-12-06T02:07:47.643Z,6.30
2018-12-06T02:10:25.009Z,6.40
2018-12-06T02:13:09.020Z,6.40
2018-12-06T02:15:40.722Z,6.40
2018-12-06T02:18:15.467Z,6.40
2018-12-06T02:20:49.964Z,6.50
2018-12-06T02:23:25.324Z,6.50
2018-12-06T02:25:55.928Z,6.50
2018-12-06T02:28:31.166Z,6.50
2018-12-06T02:31:02.250Z,6.50
2018-12-06T02:33:32.938Z,6.50
2018-12-06T02:36:08.564Z,6.50
2018-12-06T02:38:42.175Z,6.50
2018-12-06T02:41:14.271Z,6.60
2018-12-06T02:43:52.402Z,6.50
2018-12-06T02:46:26.252Z,6.60
2018-12-06T02:49:00.676Z,6.60
2018-12-06T02:51:46.193Z,6.60
2018-12-06T02:54:19.456Z,6.60
2018-12-06T02:56:53.161Z,6.60
2018-12-06T02:59:30.625Z,6.60
2018-12-06T03:02:04.262Z,6.60
2018-12-06T03:04:35.835Z,6.70
2018-12-06T03:07:06.650Z,6.70
2018-12-06T03:09:37.395Z,6.70
2018-12-06T03:12:11.692Z,6.70
2018-12-06T03:14:42.823Z,6.80
2018-12-06T03:17:16.369Z,6.80
2018-12-06T03:19:47.928Z,6.80
2018-12-06T03:25:18.875Z,6.80
2018-12-06T03:27:49.655Z,6.80
2018-12-06T03:30:23.702Z,6.80
2018-12-06T03:32:54.599Z,6.90
2018-12-06T03:35:25.738Z,6.90
2018-12-06T03:38:09.479Z,6.90
2018-12-06T03:40:43.460Z,6.90
2018-12-06T03:43:14.866Z,7.00
2018-12-06T03:45:47.252Z,6.90
2018-12-06T03:51:09.560Z,7.00
2018-12-06T03:53:45.112Z,7.10
2018-12-06T03:56:20.623Z,7.10
2018-12-06T03:58:51.778Z,7.10
2018-12-06T04:01:25.394Z,7.20
2018-12-06T04:03:58.836Z,7.20
2018-12-06T04:06:32.079Z,7.20
2018-12-06T04:09:03.531Z,7.30
2018-12-06T04:11:37.371Z,7.30
2018-12-06T04:14:08.200Z,7.40
2018-12-06T04:16:42.225Z,7.50
2018-12-06T04:19:14.675Z,7.50
2018-12-06T04:21:48.527Z,7.60
2018-12-06T04:24:22.314Z,7.70
2018-12-06T04:26:56.334Z,7.70
2018-12-06T04:29:30.104Z,7.80
2018-12-06T04:32:05.527Z,7.80
2018-12-06T04:34:36.721Z,7.90
2018-12-06T04:37:05.575Z,7.90
2018-12-06T04:39:39.617Z,7.90
2018-12-06T04:42:14.036Z,7.90
2018-12-06T04:44:45.709Z,7.90
2018-12-06T04:50:15.576Z,8.00
2018-12-06T04:55:44.177Z,8.00
2018-12-06T04:58:20.031Z,7.90
2018-12-06T05:00:48.770Z,7.90
2018-12-06T05:03:19.644Z,8.00
2018-12-06T05:05:50.570Z,8.00
2018-12-06T05:08:24.405Z,8.00
2018-12-06T05:10:55.185Z,8.00
2018-12-06T05:13:29.245Z,8.00
2018-12-06T05:16:03.073Z,8.00
2018-12-06T05:18:43.214Z,8.00
2018-12-06T05:21:14.589Z,8.10
2018-12-06T05:23:43.623Z,8.10
2018-12-06T05:29:09.527Z,8.10
2018-12-06T05:31:44.021Z,8.10
2018-12-06T05:34:19.727Z,8.10
2018-12-06T05:36:50.669Z,8.10
2018-12-06T05:42:17.814Z,8.20
2018-12-06T05:44:49.297Z,8.20
2018-12-06T05:47:22.582Z,8.20
2018-12-06T05:49:56.196Z,8.20
2018-12-06T05:52:40.195Z,8.20
2018-12-06T05:55:09.479Z,8.30
2018-12-06T05:57:42.726Z,8.20
2018-12-06T06:03:10.975Z,8.20
2018-12-06T06:05:41.923Z,8.30
2018-12-06T06:08:16.374Z,8.30
2018-12-06T06:10:49.808Z,8.30
2018-12-06T06:16:21.391Z,8.30
2018-12-06T06:18:54.938Z,8.30
2018-12-06T06:21:32.401Z,8.30
2018-12-06T06:24:03.348Z,8.30
2018-12-06T06:26:33.638Z,8.30
2018-12-06T06:29:11.259Z,8.30
2018-12-06T06:31:44.952Z,8.30
2018-12-06T06:34:22.751Z,8.40
2018-12-06T06:36:51.703Z,8.40
2018-12-06T06:42:16.161Z,8.40
2018-12-06T06:44:47.119Z,8.40
2018-12-06T06:47:18.384Z,8.40
2018-12-06T06:49:51.907Z,8.50
2018-12-06T06:52:22.828Z,8.50
2018-12-06T06:54:56.076Z,8.50
2018-12-06T07:00:22.720Z,8.50
2018-12-06T07:11:36.071Z,8.60
2018-12-06T07:14:23.017Z,8.60
2018-12-06T07:16:53.954Z,8.60
2018-12-06T07:19:24.756Z,8.70
2018-12-06T07:21:58.310Z,8.60
2018-12-06T07:24:32.036Z,8.70
2018-12-06T07:27:03.110Z,8.70
2018-12-06T07:29:32.214Z,8.70
2018-12-06T07:32:05.567Z,8.70
2018-12-06T07:34:39.425Z,8.80
2018-12-06T07:37:10.202Z,8.80
2018-12-06T07:39:43.716Z,8.80
2018-12-06T07:42:17.148Z,8.80
2018-12-06T07:44:47.984Z,8.80
2018-12-06T07:47:19.492Z,8.80
2018-12-06T07:49:50.938Z,8.80
2018-12-06T07:52:23.406Z,8.80
2018-12-06T07:54:51.998Z,8.80
2018-12-06T08:00:18.954Z,8.90
2018-12-06T08:02:56.214Z,8.90
2018-12-06T08:05:30.096Z,8.90
2018-12-06T08:10:51.774Z,8.90
2018-12-06T08:13:29.241Z,9.00
2018-12-06T08:24:22.649Z,9.00
2018-12-06T08:29:49.687Z,9.10
2018-12-06T08:32:22.911Z,9.10
2018-12-06T08:34:53.892Z,9.10
2018-12-06T08:37:28.072Z,9.10
2018-12-06T08:40:02.120Z,9.10
2018-12-06T08:45:24.277Z,9.20
2018-12-06T08:50:55.261Z,9.20
2018-12-06T08:56:29.309Z,9.20
2018-12-06T08:59:00.388Z,9.20
2018-12-06T09:16:11.031Z,9.50
2018-12-06T09:18:41.067Z,9.50
2018-12-06T09:21:18.710Z,9.50
2018-12-06T09:26:42.683Z,9.50
2018-12-06T09:34:58.058Z,9.60
2018-12-06T09:37:31.373Z,9.60
2018-12-06T09:40:00.220Z,9.60
2018-12-06T09:42:34.703Z,9.60
2018-12-06T09:45:08.984Z,9.60
2018-12-06T09:47:40.059Z,9.70
2018-12-06T09:50:17.634Z,9.70
2018-12-06T09:52:51.058Z,9.70
2018-12-06T09:58:19.514Z,9.80
2018-12-06T10:00:50.203Z,9.80
2018-12-06T10:03:20.947Z,9.90
2018-12-06T10:05:51.527Z,9.80
2018-12-06T10:08:22.086Z,9.80
2018-12-06T10:10:52.774Z,9.90
2018-12-06T10:13:23.277Z,9.90
2018-12-06T10:15:56.608Z,10.00
2018-12-06T10:18:25.307Z,10.00
2018-12-06T10:23:52.290Z,10.10
2018-12-06T10:26:25.770Z,10.10
2018-12-06T10:34:43.366Z,10.20
2018-12-06T10:44:48.903Z,10.20
2018-12-06T10:47:22.246Z,10.30
2018-12-06T10:49:53.083Z,10.30
2018-12-06T10:52:26.191Z,10.30
2018-12-06T10:57:50.423Z,10.30
2018-12-06T11:00:26.980Z,10.30
2018-12-06T11:03:06.288Z,10.30
2018-12-06T11:05:40.153Z,10.40
2018-12-06T11:08:17.547Z,10.40
2018-12-06T11:10:48.799Z,10.40
2018-12-06T11:16:18.461Z,10.40
2018-12-06T11:18:49.740Z,10.40
2018-12-06T11:21:18.722Z,10.40
2018-12-06T11:23:49.411Z,10.40
2018-12-06T11:26:20.199Z,10.50
2018-12-06T11:28:51.414Z,10.50
2018-12-06T11:31:24.624Z,10.60
2018-12-06T11:34:00.274Z,10.60
2018-12-06T11:36:31.585Z,10.60
2018-12-06T11:39:06.225Z,10.60
2018-12-06T11:41:43.052Z,10.60
2018-12-06T11:44:12.930Z,10.60
2018-12-06T11:54:19.122Z,10.60
2018-12-06T11:59:46.488Z,10.60
2018-12-06T12:02:19.868Z,10.60
2018-12-06T12:04:53.703Z,10.60
2018-12-06T12:07:28.169Z,10.60
2018-12-06T12:10:05.528Z,10.60
2018-12-06T12:12:36.616Z,10.70
2018-12-06T12:15:06.191Z,10.70
2018-12-06T12:17:36.699Z,10.70
2018-12-06T12:20:14.027Z,10.80
2018-12-06T12:22:44.527Z,10.80
2018-12-06T12:25:19.756Z,10.80
2018-12-06T12:27:48.472Z,10.80
2018-12-06T12:30:19.047Z,10.80
2018-12-06T12:32:47.735Z,10.80
2018-12-06T12:35:21.136Z,10.80
2018-12-06T12:38:08.524Z,10.80
2018-12-06T12:40:44.432Z,10.80
2018-12-06T12:43:22.093Z,10.70
2018-12-06T12:48:51.973Z,10.70
2018-12-06T12:51:25.115Z,10.70
2018-12-06T13:00:01.379Z,10.70
2018-12-06T13:02:30.050Z,10.80
2018-12-06T13:05:01.387Z,10.80
2018-12-06T13:07:32.094Z,10.90
2018-12-06T13:10:07.729Z,10.90
2018-12-06T13:12:41.433Z,11.00
2018-12-06T13:15:14.892Z,11.10
2018-12-06T13:17:48.447Z,11.20
2018-12-06T13:20:22.270Z,11.20
2018-12-06T13:22:53.335Z,11.20
2018-12-06T13:25:31.192Z,11.20
2018-12-06T13:28:15.474Z,11.20
2018-12-06T13:30:50.726Z,11.20
2018-12-06T13:33:21.391Z,11.20
2018-12-06T13:35:50.434Z,11.20
2018-12-06T13:38:27.727Z,11.30
2018-12-06T13:41:01.418Z,11.30
2018-12-06T13:43:30.603Z,11.30
2018-12-06T13:46:08.806Z,11.30
2018-12-06T13:48:43.140Z,11.40
2018-12-06T13:51:11.991Z,11.30
2018-12-06T13:53:45.526Z,11.40
2018-12-06T13:56:29.361Z,11.40
2018-12-06T13:58:59.387Z,11.40
2018-12-06T14:01:30.203Z,11.40
2018-12-06T14:03:57.710Z,11.40
2018-12-06T14:06:41.091Z,11.40
2018-12-06T14:09:16.143Z,11.40
2018-12-06T14:11:53.590Z,11.40
2018-12-06T14:14:27.391Z,11.40
2018-12-06T14:17:15.898Z,11.40
2018-12-06T14:19:49.625Z,11.40
2018-12-06T14:22:30.759Z,11.40
2018-12-06T14:25:04.232Z,11.30
2018-12-06T14:27:44.901Z,11.30
2018-12-06T14:30:18.723Z,11.30
2018-12-06T14:35:51.152Z,11.30
2018-12-06T14:38:31.805Z,11.30
2018-12-06T14:41:02.869Z,11.30
2018-12-06T14:43:34.367Z,11.30
2018-12-06T14:46:13.733Z,11.20
2018-12-06T14:48:51.260Z,11.20
2018-12-06T14:51:22.244Z,11.20
2018-12-06T14:53:49.716Z,11.20
2018-12-06T14:56:23.576Z,11.10
2018-12-06T14:58:57.861Z,11.20
2018-12-06T15:01:31.431Z,11.20
2018-12-06T15:04:13.748Z,11.10
2018-12-06T15:06:47.112Z,11.10
2018-12-06T15:09:21.526Z,11.10
2018-12-06T15:11:56.158Z,11.10
2018-12-06T15:14:32.706Z,10.60
2018-12-06T15:17:06.876Z,11.00
2018-12-06T15:22:16.559Z,11.10
2018-12-06T15:37:21.118Z,11.00
2018-12-06T15:39:54.627Z,11.00
2018-12-06T15:42:25.160Z,10.90
2018-12-06T15:44:58.775Z,10.90
2018-12-06T15:47:33.818Z,10.90
2018-12-06T15:50:10.908Z,10.90
2018-12-06T15:52:48.976Z,10.80
2018-12-06T15:55:20.600Z,10.90
2018-12-06T15:57:59.250Z,10.90
2018-12-06T16:00:40.406Z,10.90
2018-12-06T16:03:15.130Z,10.90
2018-12-06T16:05:59.508Z,10.80
2018-12-06T16:11:21.455Z,10.90
2018-12-06T16:13:52.289Z,10.90
2018-12-06T16:16:22.674Z,10.90
2018-12-06T16:18:53.239Z,10.90
2018-12-06T16:21:33.332Z,10.90
2018-12-06T16:24:03.030Z,10.90
2018-12-06T16:26:34.197Z,10.90
2018-12-06T16:29:08.963Z,11.00
2018-12-06T16:31:43.843Z,11.00
2018-12-06T16:34:21.573Z,10.90
2018-12-06T16:36:52.606Z,10.90
2018-12-06T16:39:27.749Z,10.90
2018-12-06T16:42:08.153Z,10.90
2018-12-06T16:44:45.731Z,10.90
2018-12-06T16:47:16.237Z,10.90
2018-12-06T16:49:43.779Z,10.90
2018-12-06T16:52:21.070Z,10.90
2018-12-06T16:54:54.470Z,10.90
2018-12-06T16:57:27.690Z,10.90
2018-12-06T17:02:52.599Z,10.90
2018-12-06T17:05:26.721Z,11.00
2018-12-06T17:07:57.363Z,11.00
2018-12-06T17:10:28.073Z,11.00
2018-12-06T17:13:01.340Z,11.00
2018-12-06T17:15:35.608Z,11.00
2018-12-06T17:18:11.827Z,11.10
2018-12-06T17:20:40.444Z,11.10
2018-12-06T17:23:16.332Z,11.10
2018-12-06T17:25:56.721Z,11.10
2018-12-06T17:28:32.290Z,11.10
2018-12-06T17:31:06.329Z,11.10
2018-12-06T17:33:50.549Z,11.10
2018-12-06T17:36:28.381Z,11.10
2018-12-06T17:42:02.101Z,11.10
2018-12-06T17:44:35.714Z,11.10
2018-12-06T17:47:09.955Z,11.10
2018-12-06T17:49:37.445Z,11.10
2018-12-06T17:52:14.161Z,11.10
2018-12-06T17:54:44.793Z,11.10
2018-12-06T17:57:16.097Z,11.10
2018-12-06T18:00:02.922Z,11.10
2018-12-06T18:02:34.946Z,11.10
2018-12-06T18:05:12.011Z,11.10
2018-12-06T18:07:43.840Z,11.00
2018-12-06T18:10:21.273Z,11.10
2018-12-06T18:13:03.424Z,11.10
2018-12-06T18:15:39.743Z,11.00
2018-12-06T18:18:15.136Z,11.00
2018-12-06T18:20:44.727Z,11.00
2018-12-06T18:23:19.658Z,11.00
2018-12-06T18:25:53.378Z,11.00
2018-12-06T18:28:26.631Z,11.00
2018-12-06T18:30:55.865Z,11.00
2018-12-06T18:33:26.968Z,11.00
2018-12-06T18:36:09.165Z,10.90
2018-12-06T18:38:42.370Z,10.90
2018-12-06T18:41:29.169Z,10.90
2018-12-06T18:44:03.031Z,10.90
2018-12-06T18:46:33.049Z,10.90
2018-12-06T18:49:03.843Z,10.90
2018-12-06T18:51:43.869Z,10.90
2018-12-06T18:54:19.806Z,10.90
2018-12-06T18:56:48.514Z,11.00
2018-12-06T18:59:19.304Z,10.90
2018-12-06T19:01:48.757Z,10.90
2018-12-06T19:04:30.313Z,11.00
2018-12-06T19:07:00.931Z,11.00
2018-12-06T19:09:34.377Z,11.00
2018-12-06T19:12:06.398Z,11.00
2018-12-06T19:14:37.675Z,11.00
2018-12-06T19:17:13.503Z,11.10
2018-12-06T19:19:48.173Z,11.00
2018-12-06T19:22:25.500Z,11.10
2018-12-06T19:25:01.403Z,11.10
2018-12-06T19:27:35.488Z,11.10
2018-12-06T19:30:09.062Z,11.10
2018-12-06T19:32:49.304Z,11.10
2018-12-06T19:35:23.239Z,11.10
2018-12-06T19:37:53.929Z,11.10
2018-12-06T19:40:27.543Z,11.10
2018-12-06T19:42:57.615Z,11.10
2018-12-06T19:45:31.470Z,11.10
2018-12-06T19:48:02.373Z,11.10
2018-12-06T19:50:32.888Z,11.10
2018-12-06T19:53:14.070Z,11.00
2018-12-06T19:55:49.027Z,11.10
2018-12-06T19:58:20.470Z,11.00
2018-12-06T20:00:51.397Z,11.00
2018-12-06T20:03:22.689Z,11.00
2018-12-06T20:05:53.511Z,11.00
2018-12-06T20:08:24.864Z,11.10
2018-12-06T20:11:02.146Z,11.10
2018-12-06T20:13:35.932Z,11.10
2018-12-06T20:16:09.489Z,11.10
2018-12-06T20:18:45.158Z,11.10
2018-12-06T20:24:25.060Z,11.20
2018-12-06T20:26:56.372Z,11.20
2018-12-06T20:29:25.348Z,11.20
2018-12-06T20:31:54.460Z,11.20
2018-12-06T20:40:12.830Z,11.20
2018-12-06T20:42:43.592Z,11.20
2018-12-06T20:45:28.072Z,11.30
2018-12-06T20:47:59.114Z,11.30
2018-12-06T20:50:30.302Z,11.30
2018-12-06T20:53:16.167Z,11.30
2018-12-06T20:55:54.217Z,11.30
2018-12-06T20:58:26.113Z,11.30
2018-12-06T21:01:06.067Z,11.40
2018-12-06T21:03:44.624Z,11.40
2018-12-06T21:09:09.014Z,11.40
2018-12-06T21:14:34.983Z,11.40
2018-12-06T21:17:09.393Z,11.40
2018-12-06T21:19:38.291Z,11.40
2018-12-06T21:22:11.712Z,11.40
2018-12-06T21:24:43.521Z,11.40
2018-12-06T21:27:14.159Z,11.40
2018-12-06T21:29:49.317Z,11.30
2018-12-06T21:32:23.841Z,11.30
2018-12-06T21:34:54.996Z,11.20
2018-12-06T21:37:25.756Z,11.30
2018-12-06T21:39:59.136Z,11.30
2018-12-06T21:42:32.634Z,11.20
2018-12-06T21:45:06.224Z,11.30
2018-12-06T21:47:39.709Z,11.20
2018-12-06T21:50:19.872Z,11.20
2018-12-06T21:53:06.730Z,11.20
2018-12-06T21:58:45.360Z,11.20
2018-12-06T22:01:16.725Z,11.20
2018-12-06T22:03:50.119Z,11.20
2018-12-06T22:06:19.028Z,11.10
2018-12-06T22:08:52.270Z,11.10
2018-12-06T22:14:23.802Z,11.10
2018-12-06T22:19:59.089Z,11.10
2018-12-06T22:22:30.067Z,11.20
2018-12-06T22:33:38.011Z,11.20
2018-12-06T22:39:00.067Z,11.20
2018-12-06T22:44:21.324Z,11.20
2018-12-06T22:46:55.105Z,11.10
2018-12-06T22:55:37.721Z,11.10
2018-12-06T22:58:11.225Z,11.10
2018-12-06T23:15:14.007Z,11.20
2018-12-06T23:26:24.857Z,11.20
2018-12-06T23:37:46.755Z,11.20
2018-12-06T23:46:14.505Z,11.30
2018-12-06T23:48:46.951Z,11.30
2018-12-06T23:51:31.437Z,11.30
2018-12-06T23:54:08.779Z,11.30
2018-12-06T23:56:41.928Z,11.30
2018-12-06T23:59:25.878Z,11.30
